createdAt,value
2018-05-24T11:37:01.335Z,11.70
2018-05-24T11:39:44.199Z,10.80
2018-05-24T11:46:18.022Z,9.63
2018-05-24T11:48:47.239Z,10.97
2018-05-24T11:51:16.318Z,10.73
2018-05-24T11:53:45.414Z,10.10
2018-05-24T11:56:14.606Z,10.07
2018-05-24T11:58:43.663Z,10.37
2018-05-24T12:01:12.803Z,11.63
2018-05-24T12:03:42.295Z,10.53
2018-05-24T12:06:12.398Z,10.07
2018-05-24T12:08:41.650Z,10.83
2018-05-24T12:11:11.873Z,11.33
2018-05-24T12:13:42.499Z,10.27
2018-05-24T12:16:12.403Z,12.13
2018-05-24T12:18:43.284Z,10.77
2018-05-24T12:21:15.110Z,13.33
2018-05-24T12:23:45.002Z,12.53
2018-05-24T12:26:14.567Z,11.97
2018-05-24T12:28:43.736Z,12.98
2018-05-24T12:31:13.944Z,13.30
2018-05-24T12:33:44.044Z,14.13
2018-05-24T12:36:13.298Z,14.20
2018-05-24T12:38:42.570Z,13.93
2018-05-24T12:41:14.534Z,14.37
2018-05-24T12:44:47.117Z,14.27
2018-05-24T12:47:16.773Z,12.07
2018-05-24T12:49:46.779Z,14.67
2018-05-24T12:52:16.047Z,13.17
2018-05-24T12:54:45.160Z,13.20
2018-05-24T12:57:23.139Z,13.40
2018-05-24T12:59:53.268Z,12.97
2018-05-24T13:02:22.618Z,11.57
2018-05-24T13:04:51.829Z,13.50
2018-05-24T13:07:21.637Z,14.10
2018-05-24T13:09:51.046Z,12.53
2018-05-24T13:28:48.191Z,8.33
2018-05-24T13:31:18.973Z,8.63
2018-05-24T13:33:48.082Z,8.27
2018-05-24T13:36:17.355Z,9.07
2018-05-24T13:41:09.771Z,8.30
2018-05-24T13:43:39.276Z,8.03
2018-05-24T13:46:08.383Z,8.30
2018-05-24T13:48:38.427Z,8.53
2018-05-24T13:51:07.836Z,7.73
2018-05-24T13:53:37.123Z,7.80
2018-05-24T13:56:06.677Z,7.60
2018-05-24T13:58:35.920Z,7.97
2018-05-24T14:01:07.430Z,7.70
2018-05-24T14:03:41.128Z,7.67
2018-05-24T14:06:13.157Z,7.57
2018-05-24T14:08:43.895Z,6.70
2018-05-24T14:11:13.635Z,7.57
2018-05-24T14:13:45.180Z,7.13
2018-05-24T14:16:18.567Z,7.20
2018-05-24T14:18:49.905Z,7.07
2018-05-24T14:21:19.718Z,7.53
2018-05-24T14:23:50.246Z,6.53
2018-05-24T14:26:21.891Z,7.23
2018-05-24T14:28:53.746Z,7.30
2018-05-24T14:31:22.927Z,7.03
2018-05-24T14:33:54.955Z,7.30
2018-05-24T14:36:25.134Z,6.80
2018-05-24T14:39:00.462Z,6.97
2018-05-24T14:41:29.649Z,7.20
2018-05-24T14:43:58.754Z,6.83
2018-05-24T14:46:30.487Z,7.17
2018-05-24T14:49:00.394Z,7.17
2018-05-24T14:51:30.731Z,7.03
2018-05-24T14:54:03.106Z,7.20
2018-05-24T14:56:33.940Z,6.50
2018-05-24T14:59:03.961Z,8.30
2018-05-24T15:01:34.531Z,9.17
2018-05-24T15:04:07.654Z,9.47
2018-05-24T15:06:37.544Z,8.97
2018-05-24T15:09:08.356Z,9.53
2018-05-24T15:11:39.841Z,8.83
2018-05-24T15:18:43.122Z,39.90
2018-05-24T15:21:12.739Z,54.27
2018-05-24T15:23:41.860Z,51.70
2018-05-24T15:26:11.364Z,56.77
2018-05-24T15:28:40.518Z,65.40
2018-05-24T15:31:09.646Z,70.70
2018-05-24T15:33:39.284Z,74.80
2018-05-24T15:36:09.183Z,74.00
2018-05-24T15:38:38.321Z,77.30
2018-05-24T15:41:09.585Z,68.60
2018-05-24T15:43:39.239Z,60.50
2018-05-24T15:46:09.633Z,60.33
2018-05-24T15:48:39.982Z,72.67
2018-05-24T15:51:09.097Z,71.50
2018-05-24T15:53:40.147Z,66.03
2018-05-24T15:56:09.679Z,73.20
2018-05-24T15:58:50.828Z,78.03
2018-05-24T16:01:19.996Z,75.00
2018-05-24T16:03:49.087Z,71.43
2018-05-24T16:06:18.783Z,71.87
2018-05-24T16:08:48.140Z,69.50
2018-05-24T16:11:17.595Z,66.57
2018-05-24T16:13:47.168Z,63.77
2018-05-24T16:16:17.403Z,54.77
2018-05-24T16:18:48.951Z,56.80
2018-05-24T16:21:18.603Z,43.13
2018-05-24T16:23:55.274Z,46.97
2018-05-24T16:26:24.584Z,46.77
2018-05-24T16:28:53.823Z,51.57
2018-05-24T16:31:23.317Z,56.57
2018-05-24T16:33:52.849Z,53.23
2018-05-24T16:36:23.623Z,55.10
2018-05-24T16:41:32.516Z,49.73
2018-05-24T16:44:01.752Z,52.80
2018-05-24T16:46:30.994Z,46.53
2018-05-24T16:49:00.427Z,49.97
2018-05-24T16:51:34.949Z,54.53
2018-05-24T16:54:04.356Z,50.73
2018-05-24T16:56:34.603Z,54.70
2018-05-24T16:59:05.942Z,62.03
2018-05-24T17:01:36.024Z,54.00
2018-05-24T17:04:05.467Z,55.00
2018-05-24T17:06:35.695Z,55.77
2018-05-24T17:09:08.574Z,62.20
2018-05-24T17:11:44.794Z,59.77
2018-05-24T17:14:14.034Z,59.17
2018-05-24T17:16:43.183Z,62.77
2018-05-24T17:19:22.082Z,63.30
2018-05-24T17:21:51.654Z,57.87
2018-05-24T17:24:32.077Z,60.20
2018-05-24T17:27:02.452Z,60.40
2018-05-24T17:29:31.922Z,63.27
2018-05-24T17:32:05.331Z,59.43
2018-05-24T17:34:38.352Z,55.23
2018-05-24T17:37:09.211Z,60.87
2018-05-24T17:39:42.450Z,60.47
2018-05-24T17:42:14.544Z,55.87
2018-05-24T17:44:44.396Z,62.40
2018-05-24T17:47:27.959Z,62.00
2018-05-24T17:50:08.616Z,58.20
2018-05-24T17:52:38.221Z,59.73
2018-05-24T17:55:10.592Z,62.50
2018-05-24T17:57:43.453Z,65.00
2018-05-24T18:00:18.204Z,64.37
2018-05-24T18:02:48.296Z,64.67
2018-05-24T18:05:27.632Z,67.00
2018-05-24T18:08:00.511Z,66.00
2018-05-24T18:10:36.220Z,78.33
2018-05-24T18:13:05.417Z,96.33
2018-05-24T18:15:42.965Z,91.83
2018-05-24T18:18:15.425Z,97.13
2018-05-24T18:20:44.697Z,81.83
2018-05-24T18:23:13.918Z,83.77
2018-05-24T18:25:48.966Z,79.53
2018-05-24T18:28:18.295Z,70.80
2018-05-24T18:30:59.588Z,83.60
2018-05-24T18:33:29.109Z,84.07
2018-05-24T18:35:58.260Z,83.53
2018-05-24T18:38:27.944Z,92.93
2018-05-24T18:40:57.047Z,93.67
2018-05-24T18:43:26.286Z,75.77
2018-05-24T18:45:55.791Z,66.57
2018-05-24T18:48:25.204Z,69.87
2018-05-24T18:50:54.706Z,74.73
2018-05-24T18:53:23.990Z,94.27
2018-05-24T18:55:53.918Z,91.87
2018-05-24T18:58:24.143Z,99.97
2018-05-24T19:00:53.443Z,93.17
2018-05-24T19:03:22.805Z,87.60
2018-05-24T19:05:53.642Z,94.13
2018-05-24T19:08:23.819Z,101.10
2018-05-24T19:10:53.812Z,96.77
2018-05-24T19:13:23.168Z,113.43
2018-05-24T19:15:52.610Z,94.13
2018-05-24T19:18:22.153Z,95.90
2018-05-24T19:20:51.330Z,106.57
2018-05-24T19:23:23.548Z,118.27
2018-05-24T19:25:56.728Z,111.27
2018-05-24T19:28:26.894Z,85.57
2018-05-24T19:30:56.088Z,143.57
2018-05-24T19:33:25.538Z,77.17
2018-05-24T19:35:54.814Z,98.50
2018-05-24T19:38:24.224Z,103.07
2018-05-24T19:40:56.472Z,94.97
2018-05-24T19:43:27.278Z,102.03
2018-05-24T19:45:56.766Z,75.73
2018-05-24T19:48:26.531Z,117.83
2018-05-24T19:50:55.843Z,119.00
2018-05-24T19:53:25.240Z,142.40
2018-05-24T19:55:54.616Z,93.40
2018-05-24T19:58:28.331Z,85.00
2018-05-24T20:00:57.650Z,81.77
2018-05-24T20:03:27.747Z,85.27
2018-05-24T20:05:57.171Z,101.20
2018-05-24T20:08:27.614Z,92.13
2018-05-24T20:10:58.528Z,94.73
2018-05-24T20:13:28.010Z,88.53
2018-05-24T20:15:58.449Z,104.20
2018-05-24T20:18:27.764Z,84.43
2018-05-24T20:20:57.227Z,157.17
2018-05-24T20:23:31.314Z,148.57
2018-05-24T20:26:01.355Z,88.30
2018-05-24T20:28:30.660Z,91.40
2018-05-24T20:31:00.326Z,112.40
2018-05-24T20:33:29.782Z,168.53
2018-05-24T20:35:59.310Z,168.10
2018-05-24T20:38:29.429Z,141.33
2018-05-24T20:40:59.182Z,131.13
2018-05-24T20:43:28.915Z,118.07
2018-05-24T20:45:58.202Z,160.97
2018-05-24T20:48:27.778Z,144.40
2018-05-24T20:50:57.978Z,74.37
2018-05-24T20:53:30.414Z,94.67
2018-05-24T20:55:59.745Z,140.10
2018-05-24T20:58:29.247Z,121.57
2018-05-24T21:00:58.677Z,105.17
2018-05-24T21:03:31.534Z,103.33
2018-05-24T21:06:04.699Z,100.43
2018-05-24T21:08:34.006Z,72.57
2018-05-24T21:11:06.943Z,68.27
2018-05-24T21:13:41.912Z,84.03
2018-05-24T21:16:11.247Z,78.17
2018-05-24T21:18:40.786Z,91.20
2018-05-24T21:21:26.031Z,85.70
2018-05-24T21:23:56.814Z,108.37
2018-05-24T21:26:26.197Z,97.63
2018-05-24T21:28:56.464Z,72.97
2018-05-24T21:31:25.737Z,67.70
2018-05-24T21:34:01.597Z,56.90
2018-05-24T21:36:32.516Z,63.30
2018-05-24T21:39:01.966Z,71.13
2018-05-24T21:41:31.242Z,61.40
2018-05-24T21:44:00.596Z,54.83
2018-05-24T21:46:33.726Z,74.93
2018-05-24T21:49:03.162Z,62.30
2018-05-24T21:51:32.541Z,53.37
2018-05-24T21:54:01.948Z,62.43
2018-05-24T21:56:31.650Z,50.13
2018-05-24T21:59:07.174Z,54.87
2018-05-24T22:01:36.305Z,58.50
2018-05-24T22:04:05.520Z,57.57
2018-05-24T22:06:34.980Z,68.53
2018-05-24T22:09:04.830Z,57.27
2018-05-24T22:11:35.879Z,58.40
2018-05-24T22:14:05.883Z,65.53
2018-05-24T22:16:35.288Z,62.53
2018-05-24T22:19:04.822Z,58.87
2018-05-24T22:21:35.093Z,80.40
2018-05-24T22:24:04.654Z,75.10
2018-05-24T22:26:35.168Z,67.30
2018-05-24T22:29:05.482Z,62.63
2018-05-24T22:31:34.928Z,68.53
2018-05-24T22:34:04.418Z,70.43
2018-05-24T22:36:33.736Z,72.43
2018-05-24T22:39:04.829Z,68.73
2018-05-24T22:41:41.678Z,70.53
2018-05-24T22:44:14.520Z,70.93
2018-05-24T22:46:47.277Z,82.90
2018-05-24T22:49:16.618Z,75.43
2018-05-24T22:51:45.918Z,79.57
2018-05-24T22:54:15.567Z,85.67
2018-05-24T22:56:46.503Z,75.40
2018-05-24T22:59:15.762Z,80.83
2018-05-24T23:01:45.679Z,78.30
2018-05-24T23:04:23.794Z,85.13
2018-05-24T23:09:30.785Z,79.20
2018-05-24T23:12:00.626Z,71.00
2018-05-24T23:14:30.123Z,76.23
2018-05-24T23:16:59.886Z,67.00
2018-05-24T23:19:29.431Z,61.97
2018-05-24T23:21:59.030Z,91.77
2018-05-24T23:24:28.610Z,133.63
2018-05-24T23:26:57.962Z,69.67
2018-05-24T23:29:27.439Z,99.00
2018-05-24T23:31:56.806Z,86.33
2018-05-24T23:34:26.430Z,120.50
2018-05-24T23:36:55.821Z,141.17
2018-05-24T23:39:25.143Z,78.27
2018-05-24T23:42:01.658Z,77.80
2018-05-24T23:44:31.887Z,83.13
2018-05-24T23:47:01.034Z,52.27
2018-05-24T23:49:30.685Z,85.43
2018-05-24T23:52:00.230Z,59.30
2018-05-24T23:54:29.558Z,89.20
2018-05-24T23:57:00.083Z,56.70
2018-05-24T23:59:29.584Z,66.97
